KBGR 260753Z 24003KT 10SM FEW060 OVC130 21/15 A2960 RMK AO2 SLP019 T02110150